Time;durP1;ratioP1;P1;durP2;ratioP2;P2;SDS_P1;SDS_P2;PMS_P1;PMS_P2;Temp;Humidity;BMP_temperature;BMP_pressure;BME280_temperature;BME280_humidity;BME280_pressure;Samples;Min_cycle;Max_cycle;Signal;HPM_P1;HPM_P2
2023/09/28 05:35:10;;;;;;;;;2.50;1.25;;;;;26.27;44.18;101304.69;5113378;27;45253;-54
2023/09/28 05:37:36;;;;;;;;;1.75;1.75;;;;;26.60;43.88;101308.56;5096024;27;45360;-54
2023/09/28 05:40:04;;;;;;;;;2.25;1.00;;;;;26.65;43.10;101296.06;5095583;27;45293;-55
2023/09/28 05:42:30;;;;;;;;;3.25;0.50;;;;;26.82;42.44;101334.69;5096007;27;45718;-54
2023/09/28 05:44:55;;;;;;;;;4.00;1.00;;;;;26.88;42.13;101339.56;5095565;27;46013;-51
2023/09/28 05:47:21;;;;;;;;;4.25;3.00;;;;;26.83;41.40;101344.66;5095784;27;45315;-51
2023/09/28 05:49:47;;;;;;;;;1.25;1.25;;;;;26.90;42.11;101345.75;5095763;27;45308;-50
2023/09/28 05:52:12;;;;;;;;;5.25;1.00;;;;;26.90;41.69;101348.50;5095828;27;45991;-53
2023/09/28 05:54:38;;;;;;;;;1.00;1.00;;;;;26.83;41.13;101347.41;5095467;27;46462;-52
2023/09/28 05:57:04;;;;;;;;;1.75;0.50;;;;;27.00;41.20;101349.28;5087386;27;48510;-58
2023/09/28 05:59:29;;;;;;;;;1.50;1.50;;;;;27.08;41.46;101338.31;5091556;27;45496;-58
2023/09/28 06:01:55;;;;;;;;;1.00;1.00;;;;;27.17;41.09;101339.25;5092598;27;45361;-59
2023/09/28 06:04:20;;;;;;;;;2.25;0.75;;;;;27.23;40.61;101355.09;5095228;27;45309;-58
2023/09/28 06:06:50;;;;;;;;;3.25;1.50;;;;;26.98;40.88;101343.94;5095876;27;45310;-58
2023/09/28 15:33:21;;;;;;;;;3.25;1.00;;;;;33.29;24.26;101236.50;5092716;27;45238;-76
2023/09/28 15:35:47;;;;;;;;;1.25;1.25;;;;;33.62;23.63;101231.03;5075267;27;45268;-75
2023/09/28 15:38:12;;;;;;;;;2.00;2.00;;;;;33.96;23.88;101221.75;5075227;27;45274;-74
2023/09/28 15:40:39;;;;;;;;;3.00;1.00;;;;;34.14;23.43;101231.19;5074662;27;54964;-71
2023/09/28 15:43:04;;;;;;;;;3.00;1.00;;;;;34.40;23.31;101223.94;5075672;27;46239;-70
2023/09/28 15:45:30;;;;;;;;;2.00;2.00;;;;;34.58;23.24;101214.94;5075031;28;45278;-69
2023/09/28 15:47:56;;;;;;;;;1.25;1.25;;;;;34.88;22.98;101224.53;5682152;22;46016;-71
2023/09/28 15:50:21;;;;;;;;;2.00;2.00;;;;;34.82;22.63;101217.91;5025330;28;47560;-72
2023/09/28 15:52:46;;;;;;;;;1.50;0.00;;;;;34.79;22.83;101217.50;5034666;28;45480;-70
2023/09/28 15:55:12;;;;;;;;;1.75;0.75;;;;;34.53;22.91;101238.72;5035552;28;45564;-70
2023/09/28 15:57:38;;;;;;;;;1.25;1.25;;;;;34.55;23.08;101227.34;5041096;28;45256;-70
2023/09/28 16:00:07;;;;;;;;;2.00;0.75;;;;;34.24;23.25;101236.38;5035244;28;45388;-70
2023/09/28 16:02:32;;;;;;;;;2.00;2.00;;;;;33.95;23.38;101233.94;5034619;28;46157;-71
2023/09/28 16:04:58;;;;;;;;;1.00;1.00;;;;;33.88;23.71;101236.72;5034885;28;45440;-72
2023/09/28 16:07:23;;;;;;;;;2.50;2.50;;;;;33.73;23.87;101231.34;5037459;28;45466;-70
2023/09/28 16:09:49;;;;;;;;;1.75;1.75;;;;;33.53;23.84;101215.63;5034118;28;45667;-69
2023/09/28 16:12:15;;;;;;;;;2.75;2.00;;;;;33.39;24.26;101234.19;5031446;28;45265;-72
2023/09/28 16:14:41;;;;;;;;;2.00;2.00;;;;;33.21;24.95;101225.50;5034627;28;45253;-73
2023/09/28 16:17:06;;;;;;;;;2.75;2.50;;;;;33.17;24.68;101240.91;5025442;28;50721;-71
2023/09/28 16:19:31;;;;;;;;;2.00;2.00;;;;;33.05;24.83;101240.63;5033029;28;45328;-71
2023/09/28 16:21:58;;;;;;;;;1.25;1.25;;;;;32.80;25.24;101231.91;5031957;28;45640;-72
2023/09/28 16:24:23;;;;;;;;;2.00;2.00;;;;;32.76;25.49;101238.94;5038899;28;45510;-71
2023/09/28 16:26:49;;;;;;;;;4.00;1.00;;;;;32.81;25.34;101233.63;5033523;28;45352;-71
2023/09/28 16:29:14;;;;;;;;;1.25;1.25;;;;;32.62;25.67;101242.66;5034209;28;53339;-72
2023/09/28 16:31:39;;;;;;;;;2.00;2.00;;;;;32.75;25.78;101237.22;5031328;28;45362;-71
2023/09/28 16:34:05;;;;;;;;;1.75;1.75;;;;;32.77;25.38;101228.69;5012445;28;45360;-69
2023/09/28 16:36:31;;;;;;;;;3.00;0.75;;;;;32.54;25.70;101223.38;5015684;28;45447;-71
2023/09/28 16:38:56;;;;;;;;;1.50;1.50;;;;;32.55;25.72;101228.72;5019818;28;45482;-61
2023/09/28 16:41:22;;;;;;;;;2.75;1.75;;;;;32.47;26.10;101228.88;5018517;28;45441;-63
2023/09/28 16:43:47;;;;;;;;;1.00;1.00;;;;;32.59;26.42;101221.69;5021250;28;45175;-63
2023/09/28 16:46:12;;;;;;;;;2.00;2.00;;;;;32.57;25.71;101223.84;5021034;28;45421;-62
2023/09/28 16:48:41;;;;;;;;;2.75;1.25;;;;;32.28;26.39;101230.44;5020635;28;45282;-63
2023/09/28 16:51:06;;;;;;;;;1.75;1.75;;;;;32.41;26.48;101232.44;5020693;28;46216;-63
2023/09/28 16:53:32;;;;;;;;;2.75;1.50;;;;;32.33;26.29;101224.25;5021037;28;45325;-64
2023/09/28 16:55:57;;;;;;;;;0.75;0.75;;;;;32.28;26.84;101224.00;5021070;28;45408;-63
2023/09/28 16:58:23;;;;;;;;;3.00;3.00;;;;;32.14;26.93;101234.13;5020680;28;45447;-64
2023/09/28 17:00:48;;;;;;;;;4.00;1.00;;;;;32.17;26.70;101224.56;5020759;28;47069;-64
2023/09/28 17:03:14;;;;;;;;;2.75;2.75;;;;;32.20;27.45;101229.72;5020689;28;45322;-63
2023/09/28 17:05:39;;;;;;;;;3.00;3.00;;;;;32.33;26.91;101224.25;5020831;28;45356;-63
2023/09/28 17:08:04;;;;;;;;;2.25;2.25;;;;;32.16;26.84;101212.59;5020404;28;45482;-62
2023/09/28 17:10:30;;;;;;;;;2.25;1.75;;;;;32.21;27.50;101228.66;5020751;28;45479;-62
2023/09/28 17:12:56;;;;;;;;;4.00;2.50;;;;;32.25;27.65;101222.50;5020931;28;45321;-63
2023/09/28 17:15:21;;;;;;;;;1.25;1.25;;;;;32.22;27.50;101228.47;5002995;28;45357;-64
2023/09/28 17:17:47;;;;;;;;;4.00;1.50;;;;;32.25;27.75;101233.59;5020951;28;45364;-63
2023/09/28 17:20:12;;;;;;;;;12.00;3.25;;;;;32.25;27.92;101232.72;5002420;28;46062;-62
2023/09/28 17:22:37;;;;;;;;;1.75;1.75;;;;;32.16;27.61;101236.69;5019875;28;45458;-63
2023/09/28 17:25:03;;;;;;;;;2.50;2.00;;;;;32.10;28.12;101241.09;5025646;28;45516;-63
2023/09/28 17:27:29;;;;;;;;;4.00;2.25;;;;;32.13;27.68;101232.41;5020202;28;45440;-63
2023/09/28 17:29:54;;;;;;;;;8.00;2.00;;;;;32.19;28.32;101230.75;5019978;28;46366;-63
2023/09/28 17:32:20;;;;;;;;;1.75;1.75;;;;;32.12;28.43;101236.22;5020388;28;45247;-63
2023/09/28 17:34:45;;;;;;;;;2.50;0.75;;;;;32.08;28.08;101226.56;5013731;28;45293;-63
2023/09/28 17:37:12;;;;;;;;;2.00;2.00;;;;;32.21;27.87;101223.97;5008810;28;45316;-63
2023/09/28 17:39:37;;;;;;;;;6.00;3.00;;;;;32.23;28.72;101210.75;5016385;28;46184;-62
2023/09/28 17:42:04;;;;;;;;;1.50;1.50;;;;;32.30;28.05;101221.91;5019932;28;45455;-63
2023/09/28 17:44:30;;;;;;;;;3.75;2.75;;;;;32.36;28.05;101215.53;5000593;28;45341;-63
2023/09/28 17:46:56;;;;;;;;;4.00;3.50;;;;;32.32;28.34;101205.91;5020031;28;45440;-62
2023/09/28 17:49:22;;;;;;;;;3.50;3.50;;;;;32.29;28.37;101204.41;5012237;28;47882;-62
2023/09/28 17:51:48;;;;;;;;;3.00;3.00;;;;;32.48;28.23;101222.28;5019166;28;45373;-63
2023/09/28 17:54:14;;;;;;;;;2.75;2.75;;;;;32.52;28.22;101223.56;5017701;28;45499;-62
2023/09/28 17:56:39;;;;;;;;;2.00;2.00;;;;;32.46;28.73;101221.59;5020857;28;46240;-62
2023/09/28 17:59:07;;;;;;;;;2.75;2.75;;;;;32.48;28.98;101227.81;5019768;28;45266;-62
2023/09/28 18:01:33;;;;;;;;;2.25;2.25;;;;;32.50;28.82;101241.47;5019181;28;45389;-61
2023/09/28 18:03:58;;;;;;;;;4.00;2.75;;;;;32.37;28.51;101221.94;5018848;28;45332;-62
2023/09/28 18:06:24;;;;;;;;;6.00;2.50;;;;;32.43;29.23;101232.25;5019694;28;48956;-62
2023/09/28 18:08:49;;;;;;;;;3.00;2.00;;;;;32.40;29.04;101229.88;5019319;28;45275;-62
2023/09/28 18:11:14;;;;;;;;;3.00;3.00;;;;;32.35;29.56;101226.84;5019291;28;52633;-61
2023/09/28 18:13:40;;;;;;;;;2.00;2.00;;;;;32.28;29.78;101212.91;5019576;28;45482;-64
2023/09/28 18:16:05;;;;;;;;;7.25;4.50;;;;;32.36;29.52;101215.53;5019455;28;45302;-62
2023/09/28 18:18:30;;;;;;;;;6.00;3.00;;;;;32.35;30.10;101216.59;5018664;28;51432;-52
2023/09/28 18:20:56;;;;;;;;;3.25;1.75;;;;;32.42;29.64;101219.41;5018984;28;55725;-53
2023/09/28 18:23:21;;;;;;;;;5.75;4.75;;;;;32.39;30.21;101214.28;5020059;28;45329;-51
2023/09/28 18:25:49;;;;;;;;;5.00;3.75;;;;;32.44;30.06;101215.41;5033990;28;61580;-52
2023/09/28 18:28:15;;;;;;;;;2.25;2.25;;;;;32.56;30.55;101212.94;5019277;28;47050;-53
2023/09/28 18:30:41;;;;;;;;;1.00;1.00;;;;;32.60;29.64;101220.63;5016300;28;45499;-52
2023/09/28 18:33:06;;;;;;;;;2.75;1.00;;;;;32.58;30.38;101213.59;5018439;28;45337;-52
2023/09/28 18:35:32;;;;;;;;;2.50;2.50;;;;;32.52;30.01;101204.13;5016390;28;45708;-56
2023/09/28 18:38:00;;;;;;;;;2.25;0.75;;;;;32.42;30.02;101197.22;5016732;28;45423;-54
2023/09/28 18:40:25;;;;;;;;;6.00;5.00;;;;;32.42;30.35;101200.84;5016998;28;45553;-55
2023/09/28 18:42:50;;;;;;;;;5.00;4.75;;;;;32.41;30.84;101209.41;5019398;28;45879;-52
2023/09/28 18:45:16;;;;;;;;;8.50;4.00;;;;;32.36;30.32;101209.13;5014686;28;54005;-56
2023/09/28 18:47:41;;;;;;;;;4.00;2.50;;;;;32.36;30.46;101203.59;5011185;28;45384;-52
2023/09/28 18:50:06;;;;;;;;;3.50;2.25;;;;;32.36;30.78;101201.66;5008182;28;45342;-52
2023/09/28 18:52:34;;;;;;;;;2.75;2.75;;;;;32.22;31.10;101195.16;5013141;28;45497;-54
2023/09/28 18:55:00;;;;;;;;;3.00;1.75;;;;;32.12;30.89;101189.06;5017412;28;45528;-55
2023/09/28 18:57:25;;;;;;;;;4.00;3.00;;;;;32.14;31.50;101195.28;5012851;28;45644;-56
2023/09/28 18:59:50;;;;;;;;;5.25;2.25;;;;;32.08;31.42;101209.94;5015212;28;45591;-53
2023/09/28 19:02:16;;;;;;;;;4.25;3.00;;;;;32.09;31.00;101208.88;5018799;28;45423;-54
2023/09/28 19:04:42;;;;;;;;;1.50;1.50;;;;;31.98;31.44;101181.69;5018364;28;45519;-54
2023/09/28 19:07:07;;;;;;;;;4.75;3.75;;;;;32.05;31.87;101192.84;5018240;28;45782;-54
2023/09/28 19:09:33;;;;;;;;;3.00;2.00;;;;;32.07;32.19;101188.78;5018464;28;45416;-53
2023/09/28 19:11:58;;;;;;;;;3.50;3.50;;;;;32.07;31.82;101199.88;5009286;28;55355;-54
2023/09/28 19:14:23;;;;;;;;;1.75;1.75;;;;;32.01;32.37;101194.28;5002884;28;45947;-54
2023/09/28 19:16:50;;;;;;;;;3.25;3.25;;;;;31.95;32.28;101187.63;5007341;28;46074;-54
2023/09/28 19:19:18;;;;;;;;;4.50;3.50;;;;;31.98;32.64;101203.88;5009985;28;45329;-52
2023/09/28 19:21:43;;;;;;;;;3.00;3.00;;;;;32.00;32.28;101198.97;5018292;28;45408;-52
2023/09/28 19:24:11;;;;;;;;;5.75;4.75;;;;;32.03;32.60;101208.81;5017968;28;45318;-51
2023/09/28 19:26:36;;;;;;;;;7.00;4.25;;;;;31.99;32.04;101196.38;5018330;28;47123;-53
2023/09/28 19:29:01;;;;;;;;;4.50;3.75;;;;;31.95;32.54;101193.19;5033178;28;52670;-54
2023/09/28 19:31:30;;;;;;;;;4.25;2.75;;;;;31.89;32.88;101197.59;5018532;28;45214;-53
2023/09/28 19:33:58;;;;;;;;;3.50;2.75;;;;;31.90;32.96;101190.97;5017788;28;45397;-55
2023/09/28 19:36:24;;;;;;;;;3.75;2.25;;;;;31.82;32.72;101190.25;5005484;28;45194;-54
2023/09/28 19:38:50;;;;;;;;;3.25;3.25;;;;;31.83;33.00;101190.06;5018138;28;45364;-53
2023/09/28 19:41:26;;;;;;;;;2.25;2.25;;;;;31.81;32.81;101185.78;5018356;28;45463;-53
2023/09/28 19:43:51;;;;;;;;;5.00;3.75;;;;;31.86;33.37;101194.38;5017507;28;45353;-51
2023/09/28 19:46:21;;;;;;;;;3.25;3.00;;;;;31.90;33.17;101187.38;5014821;28;46324;-55
2023/09/28 19:48:48;;;;;;;;;3.00;3.00;;;;;31.85;32.86;101185.19;5017217;28;45339;-55
2023/09/28 19:51:21;;;;;;;;;2.25;2.25;;;;;31.84;33.51;101177.06;5005562;28;45307;-54
2023/09/28 19:53:47;;;;;;;;;2.00;2.00;;;;;31.87;33.39;101169.22;5018044;28;45246;-53
2023/09/28 19:56:25;;;;;;;;;3.50;3.00;;;;;31.85;33.06;101168.53;5018216;28;46403;-54
2023/09/28 19:58:52;;;;;;;;;3.75;2.75;;;;;31.86;33.29;101169.41;5014183;28;45382;-51
2023/09/28 20:01:18;;;;;;;;;4.50;3.00;;;;;31.74;33.28;101173.75;5018107;28;45352;-53
2023/09/28 20:03:44;;;;;;;;;5.50;1.75;;;;;31.69;34.29;101181.81;5015962;28;45540;-52
2023/09/28 20:06:09;;;;;;;;;6.75;5.25;;;;;31.75;33.84;101183.78;5017758;28;46348;-54
2023/09/28 20:08:35;;;;;;;;;4.50;4.50;;;;;31.75;33.72;101187.41;5019299;28;45291;-52
2023/09/28 20:11:01;;;;;;;;;2.00;2.00;;;;;31.78;33.98;101186.19;5021509;28;45332;-51
2023/09/28 20:13:26;;;;;;;;;6.50;5.25;;;;;31.81;34.31;101188.56;5020840;28;45663;-52
2023/09/28 20:15:51;;;;;;;;;4.50;4.25;;;;;31.79;33.97;101187.91;5020907;28;61094;-55
2023/09/28 20:18:17;;;;;;;;;5.50;3.00;;;;;31.78;34.07;101192.59;5020443;28;52811;-52
2023/09/28 20:20:42;;;;;;;;;4.75;2.50;;;;;31.80;33.86;101193.25;5021405;28;45362;-53
2023/09/28 20:23:08;;;;;;;;;3.00;2.50;;;;;31.72;34.82;101192.53;5021001;28;45305;-55
2023/09/28 20:25:34;;;;;;;;;5.00;3.75;;;;;31.71;34.59;101176.94;5021147;28;46346;-52
2023/09/28 20:27:59;;;;;;;;;2.50;2.25;;;;;31.71;34.08;101180.56;5020745;28;45306;-55
2023/09/28 20:30:25;;;;;;;;;1.75;1.75;;;;;31.69;34.77;101179.91;5020911;28;45408;-52
2023/09/28 20:32:50;;;;;;;;;6.75;2.00;;;;;31.48;34.36;101161.31;5020093;28;45481;-56
2023/09/28 20:35:16;;;;;;;;;2.75;2.75;;;;;31.52;34.40;101178.41;5020667;28;46318;-52
2023/09/28 20:37:41;;;;;;;;;5.25;3.00;;;;;31.54;34.93;101176.31;5014613;28;45415;-57
2023/09/28 20:40:07;;;;;;;;;5.25;4.25;;;;;31.55;34.88;101178.03;5014115;28;45865;-52
2023/09/28 20:42:33;;;;;;;;;3.00;3.00;;;;;31.38;35.75;101177.41;5006639;28;45619;-55
2023/09/28 20:44:58;;;;;;;;;0.75;0.75;;;;;31.37;35.86;101180.38;5018679;28;45289;-51
2023/09/28 20:47:24;;;;;;;;;3.00;3.00;;;;;31.36;35.32;101173.97;5014238;28;45465;-52
2023/09/28 20:49:51;;;;;;;;;3.00;0.75;;;;;31.34;35.82;101177.97;5020734;28;45420;-52
2023/09/28 20:52:17;;;;;;;;;3.00;3.00;;;;;31.37;35.71;101169.28;4999311;28;45376;-53
2023/09/28 20:54:43;;;;;;;;;4.00;3.50;;;;;31.38;35.78;101151.63;5020573;28;45238;-52
2023/09/28 20:57:09;;;;;;;;;5.00;2.25;;;;;31.43;35.89;101151.88;5019556;28;45328;-52
2023/09/28 20:59:35;;;;;;;;;3.00;3.00;;;;;31.38;36.24;101152.47;5013601;28;45360;-54
2023/09/28 21:02:00;;;;;;;;;2.25;2.25;;;;;31.33;36.43;101157.72;5020404;28;45428;-53
2023/09/28 21:04:26;;;;;;;;;1.75;1.75;;;;;31.32;36.57;101167.09;5020676;28;46507;-55
2023/09/28 21:06:52;;;;;;;;;6.25;1.75;;;;;31.28;37.06;101171.31;5020719;28;45263;-53
2023/09/28 21:09:19;;;;;;;;;5.50;4.00;;;;;31.13;37.38;101164.97;5020876;28;45430;-53
2023/09/28 21:11:47;;;;;;;;;4.00;2.25;;;;;31.01;38.23;101178.41;5020580;28;45337;-53
2023/09/28 21:14:14;;;;;;;;;3.00;3.00;;;;;31.11;37.39;101161.50;5020469;28;47017;-55
2023/09/28 21:16:39;;;;;;;;;3.75;2.75;;;;;31.03;38.27;101158.81;5019257;28;45416;-54
2023/09/28 21:19:04;;;;;;;;;2.75;2.75;;;;;31.03;37.92;101167.13;5020204;28;45325;-53
2023/09/28 21:21:30;;;;;;;;;1.50;1.50;;;;;30.94;37.79;101163.63;5020615;28;45226;-54
2023/09/28 21:23:55;;;;;;;;;4.25;3.00;;;;;31.10;37.95;101170.88;5020442;28;45852;-54
2023/09/28 21:26:21;;;;;;;;;2.25;2.25;;;;;31.17;38.03;101167.13;5002866;28;45640;-54
2023/09/28 21:28:46;;;;;;;;;3.00;1.50;;;;;31.10;38.41;101174.50;5019192;28;45278;-53
2023/09/28 21:31:11;;;;;;;;;4.00;2.25;;;;;30.99;38.35;101171.31;5019914;28;58807;-55
2023/09/28 21:33:37;;;;;;;;;2.50;2.50;;;;;30.95;39.03;101168.09;5020139;28;45509;-55
2023/09/28 21:36:03;;;;;;;;;5.25;3.75;;;;;30.65;38.83;101133.16;5019913;28;54468;-54
2023/09/28 21:38:29;;;;;;;;;2.50;2.50;;;;;30.83;39.44;101189.00;5020712;28;45370;-52
2023/09/28 21:40:54;;;;;;;;;3.25;3.00;;;;;30.79;39.53;101185.75;5019388;28;59029;-54
2023/09/28 21:43:19;;;;;;;;;3.75;3.75;;;;;30.77;39.04;101184.25;5019778;28;57293;-54
2023/09/28 21:45:44;;;;;;;;;2.75;2.75;;;;;30.74;39.53;101179.94;5020170;28;45475;-53
2023/09/28 21:48:10;;;;;;;;;2.00;1.75;;;;;30.75;39.72;101169.72;5019728;28;46855;-53
2023/09/28 21:50:35;;;;;;;;;6.25;3.25;;;;;30.72;39.88;101150.72;5019466;28;58948;-51
2023/09/28 21:53:00;;;;;;;;;3.75;3.75;;;;;30.87;39.88;101159.03;5019808;28;57514;-52
2023/09/28 21:55:26;;;;;;;;;4.50;2.50;;;;;30.76;39.72;101154.84;5019975;28;49240;-56
2023/09/28 21:57:51;;;;;;;;;2.75;2.75;;;;;30.79;40.23;101152.53;5020703;28;47057;-52
2023/09/28 22:02:57;;;;;;;;;3.75;3.75;;;;;30.70;40.45;101142.63;5019334;28;45375;-54
2023/09/28 22:05:22;;;;;;;;;3.75;3.75;;;;;30.56;41.04;101137.94;5019866;28;45343;-54
2023/09/28 22:07:48;;;;;;;;;3.75;2.75;;;;;30.59;40.83;101154.19;5019666;28;46415;-52
2023/09/28 22:10:14;;;;;;;;;3.00;3.00;;;;;30.58;40.61;101149.69;5019646;28;46081;-54
2023/09/28 22:12:39;;;;;;;;;3.25;2.75;;;;;30.61;40.75;101154.00;5019527;28;45316;-53
2023/09/28 22:15:05;;;;;;;;;6.75;3.00;;;;;30.66;40.35;101151.50;5019730;28;45392;-55
2023/09/28 22:17:31;;;;;;;;;3.25;3.25;;;;;30.64;40.94;101140.63;5019779;28;45332;-55
2023/09/28 22:19:56;;;;;;;;;2.50;2.50;;;;;30.61;40.87;101142.91;5019121;28;45384;-53
2023/09/28 22:22:21;;;;;;;;;3.50;3.50;;;;;30.72;40.92;101151.59;5018853;28;57541;-53
2023/09/28 22:24:46;;;;;;;;;3.00;2.00;;;;;30.77;41.13;101142.72;5019403;28;45296;-52
2023/09/28 22:27:12;;;;;;;;;2.00;2.00;;;;;30.70;41.21;101139.88;5019102;28;51198;-56
2023/09/28 22:29:37;;;;;;;;;3.00;3.00;;;;;30.72;41.32;101134.13;5019420;28;45624;-55
2023/09/28 22:32:02;;;;;;;;;4.50;4.50;;;;;30.66;41.24;101127.44;5018511;28;46156;-53
2023/09/28 22:34:28;;;;;;;;;3.00;3.00;;;;;30.67;40.98;101131.94;5019116;28;45313;-52
2023/09/28 22:36:53;;;;;;;;;3.00;3.00;;;;;30.57;41.55;101125.81;5018711;28;54413;-53
2023/09/28 22:39:18;;;;;;;;;4.25;3.50;;;;;30.56;41.72;101109.41;5019301;28;45475;-53
2023/09/28 22:41:44;;;;;;;;;3.00;3.00;;;;;30.70;41.25;101126.03;5018619;28;55494;-53
2023/09/28 22:44:09;;;;;;;;;5.00;4.75;;;;;30.58;41.51;101119.25;5019387;28;47249;-54
2023/09/28 22:46:34;;;;;;;;;4.25;2.50;;;;;30.55;42.31;101122.38;5019178;28;45325;-54
2023/09/28 22:49:00;;;;;;;;;4.00;3.75;;;;;30.28;42.70;101120.28;5017875;28;45591;-55
2023/09/28 22:51:25;;;;;;;;;5.75;3.00;;;;;30.28;42.83;101128.56;5018986;28;46164;-54
2023/09/28 22:53:50;;;;;;;;;3.25;3.00;;;;;30.45;42.56;101139.25;5019271;28;45317;-51
2023/09/28 22:56:16;;;;;;;;;4.25;3.00;;;;;30.27;43.09;101130.47;5019923;28;45350;-53
2023/09/28 22:58:41;;;;;;;;;4.25;4.00;;;;;30.37;42.05;101124.63;5018107;28;45273;-51
